Time;durP1;ratioP1;P1;durP2;ratioP2;P2;SDS_P1;SDS_P2;PMS_P1;PMS_P2;Temp;Humidity;BMP_temperature;BMP_pressure;BME280_temperature;BME280_humidity;BME280_pressure;Samples;Min_cycle;Max_cycle;Signal;HPM_P1;HPM_P2
2020/12/13 00:02:20;;;;;;;25.30;14.40;;;8.20;99.90;;;;;;4993652;28;20218;-77
2020/12/13 00:04:47;;;;;;;24.93;13.00;;;8.20;99.90;;;;;;4988820;28;20271;-75
2020/12/13 00:07:14;;;;;;;25.83;12.83;;;8.20;99.90;;;;;;4987437;28;20571;-77
2020/12/13 00:09:40;;;;;;;21.60;12.53;;;8.20;99.90;;;;;;4987272;28;20220;-75
2020/12/13 00:12:07;;;;;;;25.10;13.70;;;8.30;99.90;;;;;;4987039;28;20289;-76
2020/12/13 00:14:35;;;;;;;32.70;14.40;;;8.30;99.90;;;;;;4987992;28;20252;-76
2020/12/13 00:17:02;;;;;;;26.40;14.70;;;8.30;99.90;;;;;;4986832;28;20198;-76
2020/12/13 00:19:28;;;;;;;22.33;12.97;;;8.20;99.90;;;;;;4986403;28;20707;-77
2020/12/13 00:21:56;;;;;;;21.87;12.80;;;8.20;99.90;;;;;;4987600;28;20282;-77
2020/12/13 00:24:25;;;;;;;24.70;12.87;;;8.20;99.90;;;;;;4984879;28;20201;-76
2020/12/13 00:26:51;;;;;;;22.73;13.10;;;8.20;99.90;;;;;;4988792;28;20200;-75
2020/12/13 00:29:18;;;;;;;28.40;13.40;;;8.20;99.90;;;;;;4988208;28;20206;-76
2020/12/13 00:31:45;;;;;;;28.67;13.27;;;8.20;99.90;;;;;;4987633;28;20285;-76
2020/12/13 00:34:12;;;;;;;28.27;12.97;;;8.20;99.90;;;;;;4987139;28;20204;-76
2020/12/13 00:36:38;;;;;;;25.07;12.57;;;8.20;99.90;;;;;;4988287;28;20209;-76
2020/12/13 00:39:05;;;;;;;22.53;12.73;;;8.20;99.90;;;;;;4987446;28;20300;-77
2020/12/13 00:41:32;;;;;;;21.93;12.97;;;8.20;99.90;;;;;;4986210;28;20272;-76
2020/12/13 00:43:59;;;;;;;18.03;11.90;;;8.20;99.90;;;;;;4987422;28;20209;-75
2020/12/13 00:46:25;;;;;;;20.33;11.27;;;8.20;99.90;;;;;;4990017;28;20257;-75
2020/12/13 00:48:52;;;;;;;18.57;10.40;;;8.20;99.90;;;;;;4987414;28;20231;-75
2020/12/13 00:51:24;;;;;;;19.17;11.27;;;8.20;99.90;;;;;;4988042;28;20231;-77
2020/12/13 00:53:50;;;;;;;13.60;9.87;;;8.20;99.90;;;;;;4987419;28;20719;-76
2020/12/13 00:56:17;;;;;;;17.23;10.33;;;8.20;99.90;;;;;;4986678;28;20253;-75
2020/12/13 00:58:43;;;;;;;16.87;9.10;;;8.20;99.90;;;;;;4986610;28;20602;-77
2020/12/13 01:01:10;;;;;;;17.10;10.17;;;8.20;99.90;;;;;;4988463;28;20198;-76
2020/12/13 01:03:36;;;;;;;16.00;9.43;;;8.20;99.90;;;;;;4988106;28;20298;-76
2020/12/13 01:06:04;;;;;;;15.17;9.43;;;8.20;99.90;;;;;;4987638;28;20205;-75
2020/12/13 01:08:30;;;;;;;17.47;9.03;;;8.10;99.90;;;;;;4987721;28;20227;-76
2020/12/13 01:10:56;;;;;;;15.87;10.00;;;8.10;99.90;;;;;;4984975;28;20618;-76
2020/12/13 01:13:24;;;;;;;18.13;9.67;;;8.10;99.90;;;;;;4985836;28;20202;-76
2020/12/13 01:15:51;;;;;;;17.33;9.57;;;8.10;99.90;;;;;;4986507;28;21221;-75
2020/12/13 01:18:17;;;;;;;18.00;10.00;;;8.10;99.90;;;;;;4988551;28;20209;-73
2020/12/13 01:20:44;;;;;;;18.17;10.70;;;8.10;99.90;;;;;;4990338;28;20194;-77
2020/12/13 01:23:11;;;;;;;21.17;10.93;;;8.10;99.90;;;;;;4990370;28;20228;-74
2020/12/13 01:25:38;;;;;;;18.00;10.93;;;8.10;99.90;;;;;;4990155;28;20341;-74
2020/12/13 01:28:04;;;;;;;18.37;11.40;;;8.10;99.90;;;;;;4990495;28;20201;-75
2020/12/13 01:30:31;;;;;;;17.77;12.27;;;8.10;99.90;;;;;;4990139;28;20233;-76
2020/12/13 01:32:57;;;;;;;20.93;12.23;;;8.10;99.90;;;;;;4992690;28;20202;-76
2020/12/13 01:35:25;;;;;;;22.63;11.90;;;8.10;99.90;;;;;;4991044;28;20276;-77
2020/12/13 01:37:52;;;;;;;24.67;12.13;;;8.10;99.90;;;;;;4991148;28;20280;-78
2020/12/13 01:40:20;;;;;;;21.93;12.93;;;8.10;99.90;;;;;;4989626;28;20205;-77
2020/12/13 01:42:47;;;;;;;21.73;12.93;;;8.10;99.90;;;;;;4991811;28;20264;-76
2020/12/13 01:45:18;;;;;;;23.23;12.67;;;8.10;99.90;;;;;;4994285;28;20202;-77
2020/12/13 01:47:45;;;;;;;18.27;11.20;;;8.10;99.90;;;;;;4990604;28;20205;-78
2020/12/13 01:50:23;;;;;;;19.77;11.10;;;8.10;99.90;;;;;;4988941;28;20209;-76
2020/12/13 01:52:49;;;;;;;17.87;11.40;;;8.10;99.90;;;;;;4991600;28;20197;-77
2020/12/13 01:55:17;;;;;;;21.03;10.83;;;8.00;99.90;;;;;;4991899;28;20198;-77
2020/12/13 01:57:51;;;;;;;21.27;10.20;;;8.00;99.90;;;;;;4988094;28;20197;-76
2020/12/13 02:00:18;;;;;;;23.87;10.77;;;8.00;99.90;;;;;;4993568;28;20267;-77
2020/12/13 02:02:49;;;;;;;19.83;10.30;;;8.00;99.90;;;;;;4991289;28;20229;-76
2020/12/13 02:05:16;;;;;;;19.03;10.57;;;8.00;99.90;;;;;;4991084;28;20197;-77
2020/12/13 02:07:43;;;;;;;20.30;9.67;;;8.00;99.90;;;;;;4991809;28;20205;-76
2020/12/13 02:10:11;;;;;;;21.30;10.93;;;8.00;99.90;;;;;;4991039;28;20295;-76
2020/12/13 02:12:38;;;;;;;22.53;11.00;;;8.00;99.90;;;;;;4988858;28;20277;-77
2020/12/13 02:15:08;;;;;;;18.43;10.63;;;8.00;99.90;;;;;;4994208;28;20210;-76
2020/12/13 02:17:36;;;;;;;21.90;11.70;;;8.00;99.90;;;;;;4989542;28;20305;-77
2020/12/13 02:20:07;;;;;;;23.53;10.50;;;8.00;99.90;;;;;;4990172;28;20240;-76
2020/12/13 02:22:38;;;;;;;17.87;10.07;;;8.00;99.90;;;;;;4990438;28;20612;-76
2020/12/13 02:25:10;;;;;;;18.40;10.83;;;8.00;99.90;;;;;;4989946;28;20256;-74
2020/12/13 02:27:36;;;;;;;24.40;10.70;;;8.00;99.90;;;;;;4989257;28;20198;-77
2020/12/13 02:30:04;;;;;;;18.87;11.30;;;8.00;99.90;;;;;;4989839;28;20205;-77
2020/12/13 02:32:31;;;;;;;20.33;11.27;;;8.00;99.90;;;;;;4989002;28;20193;-76
2020/12/13 02:34:57;;;;;;;20.07;10.63;;;8.00;99.90;;;;;;4991799;28;20200;-77
2020/12/13 02:37:24;;;;;;;23.70;10.87;;;8.00;99.90;;;;;;4988816;28;20614;-75
2020/12/13 02:39:51;;;;;;;22.30;11.50;;;8.00;99.90;;;;;;4990017;28;20201;-76
2020/12/13 02:42:18;;;;;;;24.83;11.10;;;8.00;99.90;;;;;;4991712;28;20706;-76
2020/12/13 02:44:44;;;;;;;26.47;12.13;;;8.00;99.90;;;;;;4989410;28;20198;-76
2020/12/13 02:47:11;;;;;;;23.63;12.03;;;8.00;99.90;;;;;;4988510;28;20226;-75
2020/12/13 02:49:40;;;;;;;26.27;12.60;;;7.90;99.90;;;;;;4987431;28;20275;-76
2020/12/13 02:52:07;;;;;;;26.83;12.20;;;7.90;99.90;;;;;;4988943;28;20564;-76
2020/12/13 02:54:33;;;;;;;23.87;13.10;;;7.90;99.90;;;;;;4988782;28;20623;-75
2020/12/13 02:57:02;;;;;;;20.17;11.73;;;8.00;99.90;;;;;;4990001;28;20201;-75
2020/12/13 02:59:28;;;;;;;21.17;10.50;;;7.90;99.90;;;;;;4993304;28;20201;-76
2020/12/13 03:01:55;;;;;;;21.53;11.03;;;7.90;99.90;;;;;;4991990;28;20228;-74
2020/12/13 03:04:21;;;;;;;19.77;10.03;;;7.90;99.90;;;;;;4991053;28;20198;-75
2020/12/13 03:06:48;;;;;;;23.17;11.00;;;7.90;99.90;;;;;;4988457;28;20559;-76
2020/12/13 03:09:15;;;;;;;16.23;9.67;;;7.90;99.90;;;;;;4988811;28;20602;-75
2020/12/13 03:11:41;;;;;;;23.00;9.07;;;7.90;99.90;;;;;;4988518;28;20297;-76
2020/12/13 03:14:08;;;;;;;18.03;8.87;;;7.90;99.90;;;;;;4986219;28;20206;-75
2020/12/13 03:16:35;;;;;;;17.27;9.03;;;7.90;99.90;;;;;;4989534;28;20198;-73
2020/12/13 03:19:01;;;;;;;23.83;9.63;;;7.90;99.90;;;;;;4989468;28;20254;-76
2020/12/13 03:21:28;;;;;;;18.23;9.77;;;7.90;99.90;;;;;;4987324;28;20218;-76
2020/12/13 03:23:54;;;;;;;20.07;9.00;;;7.90;99.90;;;;;;4988979;28;20619;-75
2020/12/13 03:26:20;;;;;;;18.20;10.43;;;7.90;99.90;;;;;;4986575;28;20692;-74
2020/12/13 03:28:47;;;;;;;18.20;11.83;;;7.90;99.90;;;;;;4991522;28;22407;-75
2020/12/13 03:31:14;;;;;;;21.10;12.80;;;7.90;99.90;;;;;;4988509;28;20260;-73
2020/12/13 03:33:41;;;;;;;19.90;12.00;;;7.90;99.90;;;;;;4988329;28;20236;-74
2020/12/13 03:36:07;;;;;;;14.60;10.80;;;7.90;99.90;;;;;;4986776;28;20679;-76
2020/12/13 03:38:34;;;;;;;23.57;12.10;;;7.90;99.90;;;;;;4990246;28;20658;-74
2020/12/13 03:41:00;;;;;;;22.10;11.63;;;7.90;99.90;;;;;;4987265;28;20738;-75
2020/12/13 03:43:27;;;;;;;16.07;8.20;;;7.90;99.90;;;;;;4990924;28;20236;-76
2020/12/13 03:45:53;;;;;;;16.30;8.40;;;7.90;99.90;;;;;;4988605;28;20196;-77
2020/12/13 03:48:20;;;;;;;18.47;9.27;;;7.90;99.90;;;;;;4988007;28;20287;-77
2020/12/13 03:50:47;;;;;;;14.63;8.33;;;7.90;99.90;;;;;;4986609;28;20206;-73
2020/12/13 03:53:14;;;;;;;13.03;6.93;;;8.00;99.90;;;;;;4987965;28;20197;-76
2020/12/13 03:55:42;;;;;;;22.77;7.27;;;7.90;99.90;;;;;;4987335;28;20229;-73
2020/12/13 03:58:09;;;;;;;15.50;6.60;;;7.90;99.90;;;;;;4995132;28;20228;-76
2020/12/13 04:00:35;;;;;;;14.73;6.30;;;7.90;99.90;;;;;;4988275;28;20206;-75
2020/12/13 04:03:04;;;;;;;12.03;6.20;;;7.90;99.90;;;;;;4990515;28;20698;-77
2020/12/13 04:05:33;;;;;;;13.30;6.60;;;7.80;99.90;;;;;;4988060;28;20620;-76
2020/12/13 04:07:59;;;;;;;12.07;6.37;;;7.80;99.90;;;;;;4986345;28;20198;-77
2020/12/13 04:10:27;;;;;;;16.60;6.63;;;7.80;99.90;;;;;;4988977;28;21434;-77
2020/12/13 04:12:53;;;;;;;13.43;6.20;;;7.80;99.90;;;;;;4986651;28;20209;-76
2020/12/13 04:15:20;;;;;;;13.13;6.27;;;7.80;99.90;;;;;;4987610;28;21158;-76
2020/12/13 04:17:47;;;;;;;15.47;5.90;;;7.80;99.90;;;;;;4987937;28;20276;-77
2020/12/13 04:20:14;;;;;;;13.37;5.70;;;7.80;99.90;;;;;;4986546;28;20403;-75
2020/12/13 04:22:42;;;;;;;17.27;6.80;;;7.70;99.90;;;;;;4987128;28;20281;-76
2020/12/13 04:25:09;;;;;;;12.77;5.60;;;7.70;99.90;;;;;;4985937;28;20214;-76
2020/12/13 04:27:35;;;;;;;14.60;6.33;;;7.80;99.90;;;;;;4986775;28;20671;-77
2020/12/13 04:30:03;;;;;;;16.33;5.67;;;7.80;99.90;;;;;;4988329;28;20622;-77
2020/12/13 04:32:29;;;;;;;17.53;5.70;;;7.80;99.90;;;;;;4988426;28;20201;-75
2020/12/13 04:34:56;;;;;;;16.07;5.53;;;7.80;99.90;;;;;;4992556;28;20274;-78
2020/12/13 04:37:23;;;;;;;12.57;5.50;;;7.80;99.90;;;;;;4989732;28;20886;-77
2020/12/13 04:39:52;;;;;;;12.03;5.63;;;7.70;99.90;;;;;;4985345;28;20666;-77
2020/12/13 04:42:19;;;;;;;12.00;4.23;;;7.70;99.90;;;;;;4983987;28;20228;-77
2020/12/13 04:44:47;;;;;;;11.67;4.60;;;7.70;99.90;;;;;;4986185;28;20246;-76
2020/12/13 04:47:17;;;;;;;9.63;4.90;;;7.70;99.90;;;;;;4987282;28;20208;-75
2020/12/13 04:49:48;;;;;;;16.87;4.63;;;7.70;99.90;;;;;;4985148;28;20221;-78
2020/12/13 04:52:15;;;;;;;10.23;4.60;;;7.70;99.90;;;;;;4986625;28;20259;-76
2020/12/13 04:54:48;;;;;;;11.37;4.80;;;7.70;99.90;;;;;;5002088;28;20192;-76
2020/12/13 04:57:16;;;;;;;12.03;4.83;;;7.60;99.90;;;;;;4993542;28;20680;-76
2020/12/13 04:59:43;;;;;;;10.80;4.03;;;7.50;99.90;;;;;;4998130;28;20205;-74
2020/12/13 05:02:12;;;;;;;8.77;3.87;;;7.50;99.90;;;;;;4995755;28;20224;-76
2020/12/13 05:04:39;;;;;;;10.73;4.73;;;7.40;99.90;;;;;;4995130;28;20204;-76
2020/12/13 05:07:05;;;;;;;13.23;4.33;;;7.40;99.90;;;;;;4998714;28;20621;-76
2020/12/13 05:09:32;;;;;;;9.73;3.80;;;7.30;99.90;;;;;;4998335;28;20196;-75
2020/12/13 05:11:58;;;;;;;9.27;4.53;;;7.10;99.90;;;;;;4994357;28;20205;-75
2020/12/13 05:14:26;;;;;;;11.23;4.07;;;7.00;99.90;;;;;;4993984;28;20200;-75
2020/12/13 05:17:09;;;;;;;13.97;4.73;;;6.80;99.90;;;;;;5004859;28;20201;-76
2020/12/13 05:19:38;;;;;;;16.77;4.70;;;6.70;99.90;;;;;;4997341;28;20268;-76
2020/12/13 05:22:05;;;;;;;10.80;4.17;;;6.50;99.90;;;;;;4999082;28;20714;-76
2020/12/13 05:24:33;;;;;;;10.30;4.70;;;6.40;99.90;;;;;;4992254;28;20209;-74
2020/12/13 05:27:05;;;;;;;8.77;3.90;;;6.40;99.90;;;;;;4992461;28;20201;-76
2020/12/13 05:29:35;;;;;;;12.90;4.63;;;6.30;99.90;;;;;;4997290;28;20671;-76
2020/12/13 05:32:13;;;;;;;15.13;4.63;;;6.30;99.90;;;;;;5006707;28;20212;-76
2020/12/13 05:34:42;;;;;;;14.77;4.50;;;6.20;99.90;;;;;;4998736;28;20219;-76
2020/12/13 05:37:14;;;;;;;9.63;5.10;;;6.10;99.90;;;;;;4996587;28;20204;-75
2020/12/13 05:39:43;;;;;;;11.43;4.40;;;6.10;99.90;;;;;;4998967;28;20627;-75
2020/12/13 05:42:13;;;;;;;13.60;5.20;;;6.00;99.90;;;;;;4994033;28;20233;-75
2020/12/13 05:45:04;;;;;;;13.17;5.10;;;6.00;99.90;;;;;;4997178;28;20276;-75
2020/12/13 05:50:46;;;;;;;13.50;6.83;;;5.80;99.90;;;;;;4984223;28;20239;-75
2020/12/13 05:53:14;;;;;;;14.07;7.90;;;5.70;99.90;;;;;;4992347;28;20390;-75
2020/12/13 05:55:41;;;;;;;13.77;8.30;;;5.60;99.90;;;;;;5003329;28;20201;-75
2020/12/13 05:58:07;;;;;;;21.53;9.37;;;5.60;99.90;;;;;;5002675;28;20210;-76
2020/12/13 06:00:35;;;;;;;18.57;9.63;;;5.40;99.90;;;;;;4999807;28;20701;-76
2020/12/13 06:03:04;;;;;;;18.17;9.23;;;5.30;99.90;;;;;;4996049;28;20246;-77
2020/12/13 06:05:35;;;;;;;16.87;10.97;;;5.30;99.90;;;;;;5001466;28;20205;-75
2020/12/13 06:08:04;;;;;;;14.13;9.43;;;5.20;99.90;;;;;;5001944;28;20288;-75
2020/12/13 06:10:34;;;;;;;15.53;9.57;;;5.20;99.90;;;;;;4999374;28;20208;-76
2020/12/13 06:13:02;;;;;;;16.73;9.43;;;5.10;99.90;;;;;;5001781;28;20205;-76
2020/12/13 06:15:30;;;;;;;17.83;10.27;;;5.00;99.90;;;;;;4999538;28;20202;-76
2020/12/13 06:17:58;;;;;;;15.47;9.53;;;4.90;99.90;;;;;;5004038;28;20205;-76
2020/12/13 06:20:26;;;;;;;18.30;10.13;;;4.90;99.90;;;;;;4999469;28;20229;-75
2020/12/13 06:22:53;;;;;;;17.67;10.37;;;4.80;99.90;;;;;;4996569;28;20261;-74
2020/12/13 06:25:20;;;;;;;17.47;9.93;;;4.70;99.90;;;;;;4996794;28;20201;-76
2020/12/13 06:27:48;;;;;;;16.20;9.43;;;4.60;99.90;;;;;;5000892;28;20282;-75
2020/12/13 06:30:16;;;;;;;20.07;10.30;;;4.60;99.90;;;;;;4999228;28;20209;-76
2020/12/13 06:32:43;;;;;;;17.23;10.30;;;4.50;99.90;;;;;;5003595;28;20196;-76
2020/12/13 06:35:11;;;;;;;16.37;10.17;;;4.50;99.90;;;;;;4998522;28;20271;-77
2020/12/13 06:37:38;;;;;;;14.70;9.60;;;4.50;99.90;;;;;;5003371;28;20477;-75
2020/12/13 06:40:06;;;;;;;17.93;10.50;;;4.50;99.90;;;;;;4999736;28;20346;-75
2020/12/13 06:42:37;;;;;;;15.10;9.97;;;4.40;99.90;;;;;;5008130;28;20224;-76
2020/12/13 06:45:05;;;;;;;16.00;9.33;;;4.30;99.90;;;;;;5001956;28;20208;-74
2020/12/13 06:47:32;;;;;;;14.00;9.57;;;4.20;99.90;;;;;;4995473;28;20205;-76
2020/12/13 06:49:58;;;;;;;13.47;8.83;;;4.20;99.90;;;;;;4998004;28;20339;-76
2020/12/13 06:52:33;;;;;;;17.60;9.43;;;4.20;99.90;;;;;;4998185;28;20197;-75
2020/12/13 06:55:01;;;;;;;17.13;10.00;;;4.20;99.90;;;;;;4999744;28;20246;-75
2020/12/13 06:57:30;;;;;;;15.30;9.23;;;4.30;99.90;;;;;;5000631;28;20200;-75
2020/12/13 06:59:57;;;;;;;17.33;9.60;;;4.30;99.90;;;;;;5000072;28;20625;-76
2020/12/13 07:02:44;;;;;;;16.57;8.97;;;4.20;99.90;;;;;;5001563;28;20383;-76
2020/12/13 07:05:11;;;;;;;14.47;9.43;;;4.10;99.90;;;;;;5002483;28;20674;-74
2020/12/13 07:07:39;;;;;;;14.20;9.80;;;4.10;99.90;;;;;;4999729;28;20693;-76
2020/12/13 07:10:07;;;;;;;15.83;10.63;;;4.10;99.90;;;;;;4995364;28;20208;-74
2020/12/13 07:12:33;;;;;;;21.87;11.17;;;4.00;99.90;;;;;;4992329;28;20663;-74
2020/12/13 07:15:00;;;;;;;16.47;10.73;;;4.00;99.90;;;;;;4989686;28;20201;-74
2020/12/13 07:17:30;;;;;;;18.17;10.50;;;4.00;99.90;;;;;;4992300;28;20216;-75
2020/12/13 07:20:00;;;;;;;16.43;10.07;;;4.10;99.90;;;;;;4991970;28;20698;-75
2020/12/13 07:22:34;;;;;;;14.67;9.87;;;4.10;99.90;;;;;;4991253;28;20719;-74
2020/12/13 07:25:01;;;;;;;14.83;10.60;;;4.20;99.90;;;;;;4997529;28;20201;-75
2020/12/13 07:27:28;;;;;;;16.37;10.60;;;4.20;99.90;;;;;;4998482;28;20205;-74
2020/12/13 07:29:57;;;;;;;18.27;11.00;;;4.20;99.90;;;;;;4992065;28;20284;-72
2020/12/13 07:32:24;;;;;;;17.00;10.17;;;4.30;99.90;;;;;;4989697;28;20212;-75
2020/12/13 07:34:50;;;;;;;16.60;11.23;;;4.40;99.90;;;;;;4989427;28;20230;-74
2020/12/13 07:37:18;;;;;;;17.30;10.93;;;4.50;99.90;;;;;;4991772;28;20206;-72
2020/12/13 07:39:45;;;;;;;17.23;10.93;;;4.50;99.90;;;;;;4990532;28;20205;-75
2020/12/13 07:42:13;;;;;;;21.53;11.57;;;4.60;99.90;;;;;;4990995;28;20240;-73
2020/12/13 07:44:40;;;;;;;16.13;10.83;;;4.60;99.90;;;;;;4990538;28;20208;-75
2020/12/13 07:47:07;;;;;;;17.37;11.70;;;4.60;99.90;;;;;;4989775;28;20232;-76
2020/12/13 07:49:33;;;;;;;22.00;11.60;;;4.70;99.90;;;;;;4989086;28;20713;-74
2020/12/13 07:52:01;;;;;;;19.90;12.20;;;4.70;99.90;;;;;;4989485;28;20209;-75
2020/12/13 07:54:29;;;;;;;20.03;11.33;;;4.70;99.90;;;;;;4991687;28;20607;-75
2020/12/13 07:56:57;;;;;;;21.70;12.40;;;4.70;99.90;;;;;;4992170;28;20200;-75
2020/12/13 07:59:25;;;;;;;20.17;12.53;;;4.80;99.90;;;;;;4996860;28;20205;-73
2020/12/13 08:01:54;;;;;;;21.00;12.13;;;4.80;99.90;;;;;;4995670;28;20741;-73
2020/12/13 08:04:32;;;;;;;21.70;11.80;;;4.80;99.90;;;;;;4998522;28;20213;-74
2020/12/13 08:06:59;;;;;;;16.30;11.17;;;4.80;99.90;;;;;;4996225;28;20197;-72
2020/12/13 08:09:26;;;;;;;27.63;12.93;;;4.90;99.90;;;;;;4996340;28;20201;-71
2020/12/13 08:11:53;;;;;;;20.77;12.37;;;4.90;99.90;;;;;;5003409;28;20197;-73
2020/12/13 08:14:22;;;;;;;18.00;12.20;;;4.90;99.90;;;;;;4996603;28;20209;-75
2020/12/13 08:16:53;;;;;;;21.70;13.10;;;5.00;99.90;;;;;;4987144;28;20292;-73
2020/12/13 08:19:25;;;;;;;23.43;13.73;;;5.10;99.90;;;;;;4988501;28;20225;-75
2020/12/13 08:21:58;;;;;;;31.30;15.07;;;5.20;99.90;;;;;;4990151;28;21140;-72
2020/12/13 08:24:25;;;;;;;27.57;14.70;;;5.20;99.90;;;;;;4989162;28;20251;-73
2020/12/13 08:26:53;;;;;;;25.80;13.83;;;5.30;99.90;;;;;;4988672;28;20205;-73
2020/12/13 08:29:21;;;;;;;26.40;14.50;;;5.30;99.90;;;;;;4989329;28;20259;-73
2020/12/13 08:31:50;;;;;;;24.53;14.73;;;5.30;99.90;;;;;;4988344;28;20270;-73
2020/12/13 08:34:24;;;;;;;28.77;14.70;;;5.20;99.90;;;;;;4988536;28;20212;-73
2020/12/13 08:36:52;;;;;;;21.30;14.03;;;5.20;99.90;;;;;;4989905;28;20201;-73
2020/12/13 08:39:27;;;;;;;21.83;13.43;;;5.20;99.90;;;;;;4990004;28;20212;-74
2020/12/13 08:41:54;;;;;;;27.20;14.37;;;5.30;99.90;;;;;;4988429;28;20201;-73
2020/12/13 08:44:29;;;;;;;26.80;13.73;;;5.30;99.90;;;;;;4987787;28;20338;-72
2020/12/13 08:46:56;;;;;;;19.20;12.80;;;5.40;99.90;;;;;;4987830;28;20205;-73
2020/12/13 08:49:31;;;;;;;29.83;13.33;;;5.40;99.90;;;;;;4990686;28;20204;-73
2020/12/13 08:52:11;;;;;;;24.83;12.80;;;5.40;99.90;;;;;;4987773;28;20208;-74
2020/12/13 08:54:44;;;;;;;23.23;12.43;;;5.50;99.90;;;;;;4993499;28;20208;-72
2020/12/13 08:57:11;;;;;;;21.03;12.30;;;5.50;99.90;;;;;;5010251;28;20205;-74
2020/12/13 08:59:37;;;;;;;25.00;11.87;;;5.60;99.90;;;;;;5002210;28;20205;-72
2020/12/13 09:02:04;;;;;;;21.77;13.73;;;5.60;99.90;;;;;;5008437;28;20255;-74
2020/12/13 09:04:33;;;;;;;22.60;13.00;;;5.70;99.90;;;;;;5012479;28;20657;-76
2020/12/13 09:07:01;;;;;;;23.03;14.27;;;5.80;99.90;;;;;;5000252;28;20214;-78
2020/12/13 09:09:33;;;;;;;27.43;14.27;;;5.90;99.90;;;;;;5002221;28;20205;-76
2020/12/13 09:11:59;;;;;;;26.07;14.37;;;6.00;99.90;;;;;;5000571;28;20657;-72
2020/12/13 09:14:28;;;;;;;24.40;15.37;;;6.00;99.90;;;;;;5007107;28;20201;-73
2020/12/13 09:16:54;;;;;;;33.03;17.80;;;6.00;99.90;;;;;;4997637;28;20213;-75
2020/12/13 09:19:21;;;;;;;24.63;16.37;;;5.90;99.90;;;;;;4998414;28;20232;-69
2020/12/13 09:21:51;;;;;;;26.07;14.90;;;5.90;99.90;;;;;;5004993;28;20197;-75
2020/12/13 09:24:18;;;;;;;25.13;14.50;;;5.90;99.90;;;;;;5001084;28;20233;-74
2020/12/13 09:27:03;;;;;;;26.57;15.50;;;5.90;99.90;;;;;;5000441;28;20205;-76
2020/12/13 09:29:31;;;;;;;22.07;13.13;;;5.90;99.90;;;;;;5005605;28;20211;-76
2020/12/13 09:31:57;;;;;;;22.17;13.73;;;5.90;99.90;;;;;;5007173;28;20210;-74
2020/12/13 09:34:24;;;;;;;20.57;13.70;;;6.00;99.90;;;;;;5005642;28;20200;-74
2020/12/13 09:36:52;;;;;;;26.53;13.27;;;6.00;99.90;;;;;;5002395;28;20244;-72
2020/12/13 09:39:19;;;;;;;23.13;12.90;;;6.10;99.90;;;;;;5006072;28;20217;-75
2020/12/13 09:41:45;;;;;;;22.37;12.40;;;6.10;99.90;;;;;;5010672;28;20222;-74
2020/12/13 09:44:12;;;;;;;22.80;12.03;;;6.20;99.90;;;;;;5005928;28;20570;-73
2020/12/13 09:46:39;;;;;;;21.73;11.50;;;6.30;99.90;;;;;;5000579;28;20206;-73
2020/12/13 09:49:06;;;;;;;23.70;11.67;;;6.40;99.90;;;;;;5009120;28;20201;-75
2020/12/13 09:51:32;;;;;;;21.00;10.90;;;6.40;99.90;;;;;;5014769;28;20283;-75
2020/12/13 09:54:00;;;;;;;16.40;10.97;;;6.40;99.90;;;;;;5015088;28;20205;-75
2020/12/13 09:56:26;;;;;;;18.67;10.30;;;6.30;99.90;;;;;;5015833;28;20200;-75
2020/12/13 09:58:53;;;;;;;19.33;10.47;;;6.40;99.90;;;;;;5006793;28;20200;-74
2020/12/13 10:01:19;;;;;;;18.90;10.00;;;6.40;99.90;;;;;;5008785;28;20200;-76
2020/12/13 10:03:48;;;;;;;16.10;9.73;;;6.50;99.90;;;;;;5005774;28;20244;-75
2020/12/13 10:06:30;;;;;;;14.27;8.60;;;6.50;99.90;;;;;;5009150;28;20876;-76
2020/12/13 10:09:07;;;;;;;17.57;9.40;;;6.60;99.90;;;;;;5009983;28;20271;-76
2020/12/13 10:11:37;;;;;;;14.40;8.80;;;6.60;99.90;;;;;;5007498;28;20196;-77
2020/12/13 10:14:04;;;;;;;14.00;9.10;;;6.60;99.90;;;;;;5008576;28;20199;-76
2020/12/13 10:16:31;;;;;;;12.37;7.93;;;6.60;99.90;;;;;;5010267;28;20202;-76
2020/12/13 10:18:57;;;;;;;14.30;8.13;;;6.70;99.90;;;;;;5006095;28;20998;-76
2020/12/13 10:21:25;;;;;;;11.27;8.27;;;6.60;99.90;;;;;;5007372;28;20219;-77
2020/12/13 10:23:52;;;;;;;12.30;7.53;;;6.70;99.90;;;;;;5006181;28;20240;-76
2020/12/13 10:26:21;;;;;;;15.90;7.53;;;6.70;99.90;;;;;;5008657;28;20213;-75
2020/12/13 10:28:49;;;;;;;16.77;7.80;;;6.70;99.90;;;;;;5009287;28;20575;-76
2020/12/13 10:31:15;;;;;;;13.17;7.50;;;6.80;99.90;;;;;;5009760;28;22707;-76
2020/12/13 10:33:42;;;;;;;11.13;7.50;;;6.80;99.90;;;;;;5006306;28;20202;-77
2020/12/13 10:36:10;;;;;;;15.07;7.20;;;6.90;99.90;;;;;;5011114;28;20561;-75
2020/12/13 10:38:37;;;;;;;13.13;7.23;;;6.90;99.90;;;;;;5005477;28;20754;-76
2020/12/13 10:41:08;;;;;;;15.13;7.87;;;6.80;99.90;;;;;;5006026;28;20203;-75
2020/12/13 10:43:36;;;;;;;11.27;6.47;;;6.80;99.90;;;;;;5005457;28;20225;-75
2020/12/13 10:46:05;;;;;;;11.77;6.80;;;6.80;99.90;;;;;;5004548;28;20628;-74
2020/12/13 10:48:32;;;;;;;12.03;7.50;;;6.90;99.90;;;;;;5007549;28;20287;-76
2020/12/13 10:50:59;;;;;;;10.73;7.03;;;6.90;99.90;;;;;;5005882;28;20209;-74
2020/12/13 10:53:26;;;;;;;10.97;7.27;;;6.90;99.90;;;;;;5006838;28;20205;-76
2020/12/13 10:55:52;;;;;;;13.23;6.73;;;7.00;99.90;;;;;;5008211;28;20283;-75
2020/12/13 10:58:19;;;;;;;12.03;7.07;;;7.00;99.90;;;;;;5003287;28;20345;-74
2020/12/13 11:00:46;;;;;;;13.97;6.53;;;7.00;99.90;;;;;;5006479;28;20201;-76
2020/12/13 11:03:14;;;;;;;12.00;6.43;;;7.00;99.90;;;;;;5004645;28;20225;-73
2020/12/13 11:05:41;;;;;;;16.77;7.57;;;6.90;99.90;;;;;;5009572;28;20205;-73
2020/12/13 11:08:08;;;;;;;10.77;6.47;;;7.00;99.90;;;;;;5006943;28;20202;-71
2020/12/13 11:10:35;;;;;;;12.03;6.57;;;7.00;99.90;;;;;;4997321;28;20205;-73
2020/12/13 11:13:01;;;;;;;14.40;6.63;;;7.10;99.90;;;;;;4991963;28;20198;-70
2020/12/13 11:15:28;;;;;;;11.83;7.27;;;7.20;99.90;;;;;;4989052;28;20255;-73
2020/12/13 11:17:54;;;;;;;12.57;7.13;;;7.30;99.90;;;;;;4990639;28;21212;-74
2020/12/13 11:20:21;;;;;;;9.80;6.67;;;7.40;99.90;;;;;;4990943;28;21197;-73
2020/12/13 11:22:48;;;;;;;12.00;6.63;;;7.70;99.90;;;;;;4991839;28;20225;-76
2020/12/13 11:25:16;;;;;;;16.23;7.07;;;7.90;99.90;;;;;;4990464;28;20256;-72
2020/12/13 11:27:43;;;;;;;12.17;6.83;;;8.00;99.90;;;;;;4991524;28;20212;-74
2020/12/13 11:30:10;;;;;;;8.63;6.03;;;8.10;99.90;;;;;;4991274;28;20205;-74
2020/12/13 11:32:37;;;;;;;9.33;5.83;;;8.10;99.90;;;;;;4993001;28;20204;-76
2020/12/13 11:35:05;;;;;;;8.33;5.13;;;8.10;99.90;;;;;;4999181;28;20205;-76
2020/12/13 11:37:33;;;;;;;9.93;5.10;;;7.90;99.90;;;;;;4994548;28;20656;-76
2020/12/13 11:39:59;;;;;;;8.93;5.10;;;7.80;99.90;;;;;;4998621;28;20204;-74
2020/12/13 11:42:25;;;;;;;9.17;4.97;;;7.80;99.90;;;;;;4995436;28;20202;-74
2020/12/13 11:44:52;;;;;;;9.17;4.53;;;7.80;99.90;;;;;;5002329;28;20208;-74
2020/12/13 11:47:19;;;;;;;11.47;4.73;;;7.80;99.90;;;;;;5000878;28;20213;-73
2020/12/13 11:49:45;;;;;;;11.60;4.93;;;7.70;99.90;;;;;;4999626;28;20212;-75
2020/12/13 11:52:12;;;;;;;10.33;5.70;;;7.70;99.90;;;;;;4993555;28;20206;-74
2020/12/13 11:54:39;;;;;;;9.23;4.57;;;7.80;99.90;;;;;;5003787;28;20215;-74
2020/12/13 11:57:06;;;;;;;9.10;4.30;;;7.80;99.90;;;;;;5012362;28;20208;-75
2020/12/13 11:59:32;;;;;;;13.57;5.13;;;7.80;99.90;;;;;;5005932;28;20238;-75
2020/12/13 12:01:59;;;;;;;8.47;3.87;;;7.70;99.90;;;;;;5006183;28;20214;-74
2020/12/13 12:04:25;;;;;;;10.13;4.20;;;7.70;99.90;;;;;;4997223;28;20239;-73
2020/12/13 12:06:53;;;;;;;5.73;3.83;;;7.80;99.90;;;;;;5002335;28;20208;-72
2020/12/13 12:09:19;;;;;;;6.47;3.90;;;7.90;99.90;;;;;;4998031;28;20209;-75
2020/12/13 12:11:47;;;;;;;11.80;4.70;;;7.90;99.90;;;;;;4993146;28;20208;-72
2020/12/13 12:14:13;;;;;;;7.87;4.30;;;7.90;99.90;;;;;;4998052;28;20260;-73
2020/12/13 12:16:42;;;;;;;9.17;4.23;;;7.90;99.90;;;;;;5004062;28;20204;-72
2020/12/13 12:19:09;;;;;;;8.03;4.67;;;7.90;99.90;;;;;;5000836;28;21605;-72
2020/12/13 12:21:37;;;;;;;8.00;4.27;;;7.90;99.90;;;;;;4995518;28;20197;-74
2020/12/13 12:24:04;;;;;;;8.93;4.43;;;7.90;99.90;;;;;;4996278;28;20846;-74
2020/12/13 12:26:32;;;;;;;7.80;4.10;;;7.90;99.90;;;;;;4995402;28;20243;-73
2020/12/13 12:29:00;;;;;;;8.97;4.50;;;7.90;99.90;;;;;;4996473;28;20200;-74
2020/12/13 12:31:27;;;;;;;9.47;4.50;;;8.00;99.90;;;;;;4999840;28;20214;-73
2020/12/13 12:33:54;;;;;;;10.10;4.10;;;8.10;99.90;;;;;;4996722;28;20924;-73
2020/12/13 12:36:22;;;;;;;7.57;4.10;;;8.30;99.90;;;;;;4996898;28;20223;-73
2020/12/13 12:38:49;;;;;;;9.17;4.10;;;8.30;99.90;;;;;;4997964;28;20196;-72
2020/12/13 12:41:17;;;;;;;9.87;4.63;;;8.30;99.90;;;;;;4997917;28;20254;-73
2020/12/13 12:43:45;;;;;;;12.60;4.47;;;8.20;99.90;;;;;;4999161;28;20220;-73
2020/12/13 12:46:12;;;;;;;10.43;4.33;;;8.20;99.90;;;;;;4996050;28;20201;-73
2020/12/13 12:48:39;;;;;;;10.53;4.17;;;8.10;99.90;;;;;;4993545;28;20208;-73
2020/12/13 12:51:07;;;;;;;10.40;4.23;;;8.00;99.90;;;;;;5001257;28;20206;-73